createdAt,value
2023-09-13T00:50:16.728Z,19.13
2023-09-13T01:12:09.212Z,18.84
2023-09-13T01:21:52.121Z,18.71
2023-09-13T01:31:32.593Z,18.57
2023-09-13T01:52:01.806Z,18.33
2023-09-13T02:01:42.237Z,18.37
2023-09-13T02:11:23.062Z,18.28
2023-09-13T02:56:44.822Z,17.60
2023-09-13T03:06:24.960Z,17.66
2023-09-13T03:25:52.468Z,17.44
2023-09-13T03:28:56.179Z,17.35
2023-09-13T03:31:58.839Z,17.29
2023-09-13T03:35:01.062Z,17.28
2023-09-13T03:38:03.214Z,17.32
2023-09-13T03:41:06.478Z,17.29
2023-09-13T03:44:08.548Z,17.32
2023-09-13T03:47:10.696Z,17.28
2023-09-13T03:50:12.861Z,17.25
2023-09-13T03:53:14.974Z,17.25
2023-09-13T03:56:17.083Z,17.19
2023-09-13T03:59:18.938Z,17.20
2023-09-13T04:02:21.001Z,17.29
2023-09-13T04:05:23.089Z,17.25
2023-09-13T04:08:24.953Z,17.08
2023-09-13T04:11:29.898Z,17.06
2023-09-13T04:14:31.868Z,17.04
2023-09-13T04:17:34.149Z,17.11
2023-09-13T04:20:37.300Z,16.98
2023-09-13T04:23:39.202Z,17.03
2023-09-13T04:26:41.334Z,17.04
2023-09-13T04:29:44.401Z,17.06
2023-09-13T04:39:25.101Z,17.02
2023-09-13T04:43:31.905Z,17.11
2023-09-13T04:53:12.007Z,17.36
2023-09-13T05:50:40.026Z,18.51
2023-09-13T06:00:20.309Z,18.84
2023-09-13T06:09:17.143Z,18.91
2023-09-13T06:13:22.951Z,18.99
2023-09-13T06:16:56.719Z,18.92
2023-09-13T06:21:05.138Z,19.31
2023-09-13T07:30:24.494Z,22.61
2023-09-13T07:52:22.925Z,23.87
2023-09-13T08:02:06.990Z,24.50
2023-09-13T08:05:41.134Z,24.22
2023-09-13T08:14:49.002Z,24.51
2023-09-13T08:25:00.842Z,24.94
2023-09-13T08:34:40.822Z,25.83
2023-09-13T09:15:26.909Z,27.00
2023-09-13T09:36:27.426Z,27.30
2023-09-13T10:12:28.825Z,28.74
2023-09-13T10:16:03.832Z,28.92
2023-09-13T10:25:47.498Z,29.23
2023-09-13T11:06:35.672Z,30.05
2023-09-13T11:32:37.637Z,30.31
2023-09-13T12:43:44.702Z,30.68
2023-09-13T13:12:14.794Z,30.93
2023-09-13T13:22:59.693Z,30.88
2023-09-13T13:27:37.847Z,30.89
2023-09-13T13:37:19.109Z,30.69
2023-09-13T14:10:24.045Z,31.04
2023-09-13T14:14:30.124Z,31.12
2023-09-13T14:29:51.017Z,30.37
2023-09-13T14:51:10.882Z,30.22
2023-09-13T14:54:12.879Z,30.36
2023-09-13T14:57:15.572Z,30.32
2023-09-13T15:00:18.249Z,30.23
2023-09-13T15:03:20.410Z,30.06
2023-09-13T15:06:22.539Z,30.10
2023-09-13T15:09:24.618Z,30.11
2023-09-13T15:12:26.579Z,29.93
2023-09-13T15:15:29.171Z,29.65
2023-09-13T15:18:35.518Z,29.56
2023-09-13T15:21:38.097Z,29.65
2023-09-13T15:24:40.266Z,29.72
2023-09-13T15:27:42.295Z,29.50
2023-09-13T15:30:44.266Z,29.47
2023-09-13T15:33:46.324Z,29.34
2023-09-13T15:36:48.378Z,29.37
2023-09-13T15:39:50.389Z,29.25
2023-09-13T15:42:52.625Z,29.21
2023-09-13T15:45:56.532Z,29.02
2023-09-13T15:48:58.684Z,28.89
2023-09-13T15:52:01.109Z,28.87
2023-09-13T15:55:04.375Z,28.91
2023-09-13T15:58:06.297Z,28.74
2023-09-13T16:01:08.369Z,28.62
2023-09-13T16:04:10.928Z,28.47
2023-09-13T16:07:12.882Z,28.37
2023-09-13T16:10:14.866Z,28.24
2023-09-13T16:13:19.299Z,28.05
2023-09-13T16:16:21.617Z,27.92
2023-09-13T16:19:23.960Z,27.74
2023-09-13T16:22:25.878Z,27.46
2023-09-13T16:25:27.811Z,27.23
2023-09-13T16:28:29.646Z,27.17
2023-09-13T16:31:31.541Z,26.97
2023-09-13T16:34:33.496Z,26.78
2023-09-13T16:37:35.334Z,26.61
2023-09-13T16:40:37.197Z,26.25
2023-09-13T16:43:39.014Z,26.16
2023-09-13T16:46:42.048Z,25.98
2023-09-13T16:49:44.059Z,25.82
2023-09-13T16:52:45.974Z,25.72
2023-09-13T16:55:47.862Z,25.67
2023-09-13T17:02:54.291Z,24.96
2023-09-13T17:05:57.015Z,24.85
2023-09-13T17:08:58.880Z,24.76
2023-09-13T17:12:00.955Z,24.72
2023-09-13T17:15:05.273Z,24.52
2023-09-13T17:21:20.412Z,24.40
2023-09-13T17:24:22.431Z,24.40
2023-09-13T17:27:24.403Z,24.37
2023-09-13T17:30:26.811Z,24.33
2023-09-13T17:37:30.128Z,24.24
2023-09-13T17:40:32.152Z,24.22
2023-09-13T17:43:34.004Z,24.13
2023-09-13T17:46:36.109Z,24.11
2023-09-13T17:49:38.018Z,24.15
2023-09-13T17:52:39.892Z,24.17
2023-09-13T17:55:41.859Z,24.20
2023-09-13T17:58:43.953Z,24.25
2023-09-13T18:01:47.009Z,24.25
2023-09-13T18:04:49.532Z,24.18
2023-09-13T18:07:58.814Z,24.09
2023-09-13T18:11:04.214Z,24.02
2023-09-13T18:14:07.418Z,24.06
2023-09-13T18:17:09.278Z,24.27
2023-09-13T18:20:13.827Z,24.23
2023-09-13T18:23:16.150Z,24.26
2023-09-13T18:26:20.656Z,24.46
2023-09-13T18:29:22.636Z,24.36
2023-09-13T18:32:24.577Z,24.18
2023-09-13T18:35:26.488Z,23.90
2023-09-13T18:38:28.577Z,23.71
2023-09-13T18:41:30.733Z,23.52
2023-09-13T18:44:32.703Z,23.47
2023-09-13T18:47:34.797Z,23.38
2023-09-13T18:50:36.814Z,23.42
2023-09-13T18:53:40.635Z,23.47
2023-09-13T18:56:42.572Z,23.51
2023-09-13T18:59:44.665Z,23.32
2023-09-13T19:02:50.341Z,22.58
2023-09-13T19:05:58.444Z,22.70
2023-09-13T19:09:00.364Z,22.73
2023-09-13T19:12:03.439Z,22.83
2023-09-13T19:15:05.849Z,22.93
2023-09-13T19:18:08.041Z,23.04
2023-09-13T19:21:13.401Z,23.08
2023-09-13T19:24:15.350Z,23.07
2023-09-13T19:27:17.231Z,23.16
2023-09-13T19:30:19.087Z,23.25
2023-09-13T19:33:25.146Z,23.30
2023-09-13T19:36:27.461Z,23.18
2023-09-13T19:39:29.343Z,23.05
2023-09-13T19:42:34.272Z,23.08
2023-09-13T19:45:36.312Z,23.07
2023-09-13T19:48:38.411Z,22.66
2023-09-13T19:51:40.337Z,22.33
2023-09-13T19:54:42.263Z,22.39
2023-09-13T19:57:44.187Z,22.54
2023-09-13T20:00:46.414Z,22.67
2023-09-13T20:03:48.524Z,22.77
2023-09-13T20:11:00.858Z,22.71
2023-09-13T20:14:03.000Z,22.47
2023-09-13T20:17:07.561Z,22.52
2023-09-13T20:20:10.112Z,22.52
2023-09-13T20:23:11.978Z,22.45
2023-09-13T20:26:13.865Z,22.32
2023-09-13T20:29:15.849Z,22.28
2023-09-13T20:32:17.722Z,22.14
2023-09-13T20:35:19.655Z,21.91
2023-09-13T20:38:21.929Z,22.01
2023-09-13T20:41:23.932Z,22.13
2023-09-13T20:44:26.001Z,22.21
2023-09-13T20:47:28.144Z,22.40
2023-09-13T20:50:30.270Z,22.33
2023-09-13T20:53:34.511Z,22.30
2023-09-13T20:56:36.483Z,22.17
2023-09-13T20:59:39.670Z,22.07
2023-09-13T21:02:41.736Z,22.08
2023-09-13T21:09:42.553Z,21.87
2023-09-13T21:12:44.564Z,21.94
2023-09-13T21:15:46.590Z,21.99
2023-09-13T21:18:49.061Z,22.07
2023-09-13T21:21:52.387Z,22.07
2023-09-13T21:24:55.003Z,22.18
2023-09-13T21:27:57.002Z,22.22
2023-09-13T21:30:59.139Z,22.22
2023-09-13T21:34:01.244Z,22.18
2023-09-13T21:37:03.357Z,22.10
2023-09-13T21:40:06.094Z,21.85
2023-09-13T21:43:08.074Z,21.86
2023-09-13T21:46:10.142Z,21.77
2023-09-13T21:49:12.249Z,21.61
2023-09-13T21:52:15.122Z,21.54
2023-09-13T21:55:16.983Z,21.56
2023-09-13T21:58:20.716Z,21.59
2023-09-13T22:01:22.765Z,21.55
2023-09-13T22:04:25.226Z,21.36
2023-09-13T22:07:27.241Z,21.38
2023-09-13T22:10:29.259Z,21.49
2023-09-13T22:13:31.532Z,21.52
2023-09-13T22:16:33.570Z,21.41
2023-09-13T22:19:35.546Z,21.38
2023-09-13T22:22:37.536Z,21.40
2023-09-13T22:25:39.499Z,21.58
2023-09-13T22:28:41.841Z,21.64
2023-09-13T22:31:43.870Z,21.80
2023-09-13T22:34:47.283Z,21.78
2023-09-13T22:37:49.365Z,21.76
2023-09-13T22:40:51.851Z,21.87
2023-09-13T22:43:53.891Z,21.84
2023-09-13T22:46:56.754Z,21.80
2023-09-13T22:49:58.800Z,21.84
2023-09-13T22:53:02.390Z,21.81
2023-09-13T22:56:04.552Z,21.86
2023-09-13T22:59:06.658Z,21.96
2023-09-13T23:02:08.627Z,21.97
2023-09-13T23:05:11.405Z,22.05
2023-09-13T23:08:14.350Z,22.07
2023-09-13T23:11:16.792Z,22.13
2023-09-13T23:14:18.720Z,22.30
2023-09-13T23:17:21.581Z,22.37
2023-09-13T23:20:23.405Z,22.24
2023-09-13T23:23:26.398Z,22.20
2023-09-13T23:26:30.094Z,21.94
2023-09-13T23:29:34.048Z,21.70
2023-09-13T23:32:38.893Z,21.53
2023-09-13T23:35:44.168Z,21.47
2023-09-13T23:38:46.327Z,21.68
2023-09-13T23:41:48.508Z,21.87
2023-09-13T23:44:51.018Z,21.98
2023-09-13T23:47:52.980Z,22.02
2023-09-13T23:50:54.839Z,22.03
2023-09-13T23:53:56.766Z,22.01
2023-09-13T23:56:58.710Z,22.04
